Time;durP1;ratioP1;P1;durP2;ratioP2;P2;SDS_P1;SDS_P2;PMS_P1;PMS_P2;Temp;Humidity;BMP_temperature;BMP_pressure;BME280_temperature;BME280_humidity;BME280_pressure;Samples;Min_cycle;Max_cycle;Signal;HPM_P1;HPM_P2
2023/03/22 00:01:55;;;;;;;;;;;9.70;99.90;;;;;;5094307;28;19988;-82
2023/03/22 00:04:21;;;;;;;;;;;9.70;99.90;;;;;;5085232;27;19984;-82
2023/03/22 00:06:46;;;;;;;;;;;9.60;99.90;;;;;;5089712;28;20009;-83
2023/03/22 00:09:12;;;;;;;;;;;9.60;99.90;;;;;;5085185;28;19982;-81
2023/03/22 00:11:37;;;;;;;;;;;9.50;99.90;;;;;;5122941;27;19973;-82
2023/03/22 00:14:03;;;;;;;;;;;9.50;99.90;;;;;;5093759;28;20358;-83
2023/03/22 00:16:29;;;;;;;;;;;9.40;99.90;;;;;;5059298;28;19930;-82
2023/03/22 00:18:54;;;;;;;;;;;9.40;99.90;;;;;;5085196;28;19931;-83
2023/03/22 00:21:20;;;;;;;;;;;9.30;99.90;;;;;;5106263;27;20566;-82
2023/03/22 00:23:45;;;;;;;;;;;9.30;99.90;;;;;;5082783;28;19924;-82
2023/03/22 00:26:12;;;;;;;;;;;9.30;99.90;;;;;;5084000;28;19970;-83
2023/03/22 00:28:38;;;;;;;;;;;9.20;99.90;;;;;;5068256;27;19946;-83
2023/03/22 00:31:03;;;;;;;;;;;9.20;99.90;;;;;;5080768;27;19928;-82
2023/03/22 00:33:30;;;;;;;;;;;9.20;99.90;;;;;;5085653;28;19931;-83
2023/03/22 00:36:03;;;;;;;;;;;9.10;99.90;;;;;;5085082;28;19923;-82
2023/03/22 00:38:35;;;;;;;;;;;9.10;99.90;;;;;;5082973;28;19928;-83
2023/03/22 00:41:18;;;;;;;;;;;9.00;99.90;;;;;;5122503;27;19934;-82
2023/03/22 00:43:44;;;;;;;;;;;9.00;99.90;;;;;;5120935;27;19924;-83
2023/03/22 00:46:11;;;;;;;;;;;9.00;99.90;;;;;;5118646;28;19946;-82
2023/03/22 00:48:36;;;;;;;;;;;9.00;99.90;;;;;;5122725;27;19963;-82
2023/03/22 00:51:02;;;;;;;;;;;9.10;99.90;;;;;;5082440;28;19935;-82
2023/03/22 00:53:28;;;;;;;;;;;9.10;99.90;;;;;;5094653;28;19934;-82
2023/03/22 00:55:55;;;;;;;;;;;9.10;99.90;;;;;;5083382;28;19971;-82
2023/03/22 00:58:20;;;;;;;;;;;9.10;99.90;;;;;;5084968;28;19931;-82
2023/03/22 01:00:46;;;;;;;;;;;9.20;99.90;;;;;;5084987;28;19924;-82
2023/03/22 01:03:12;;;;;;;;;;;9.20;99.90;;;;;;5078254;28;19935;-82
2023/03/22 01:05:38;;;;;;;;;;;9.30;99.90;;;;;;5084847;27;19963;-82
2023/03/22 01:08:07;;;;;;;;;;;9.30;99.90;;;;;;5066998;27;19923;-83
2023/03/22 01:10:33;;;;;;;;;;;9.30;99.90;;;;;;5099005;28;19985;-82
2023/03/22 01:12:59;;;;;;;;;;;9.30;99.90;;;;;;5082580;28;19923;-82
2023/03/22 01:15:25;;;;;;;;;;;9.40;99.90;;;;;;5084767;28;19955;-82
2023/03/22 01:17:50;;;;;;;;;;;9.30;99.90;;;;;;5102533;28;19928;-82
2023/03/22 01:20:16;;;;;;;;;;;9.30;99.90;;;;;;5078326;28;19931;-82
2023/03/22 01:22:41;;;;;;;;;;;9.30;99.90;;;;;;5107984;28;19928;-82
2023/03/22 01:25:07;;;;;;;;;;;9.30;99.90;;;;;;5077946;28;19950;-82
2023/03/22 01:27:33;;;;;;;;;;;9.30;99.90;;;;;;5088518;28;19924;-82
2023/03/22 01:29:58;;;;;;;;;;;9.30;99.90;;;;;;5085880;28;19928;-82
2023/03/22 01:32:24;;;;;;;;;;;9.40;99.90;;;;;;5077913;27;19986;-82
2023/03/22 01:34:51;;;;;;;;;;;9.40;99.90;;;;;;5091704;28;19924;-82
2023/03/22 01:37:17;;;;;;;;;;;9.30;99.90;;;;;;5095047;28;19928;-82
2023/03/22 01:39:42;;;;;;;;;;;9.40;99.90;;;;;;5080455;28;20014;-82
2023/03/22 01:42:14;;;;;;;;;;;9.40;99.90;;;;;;5052713;28;19924;-83
2023/03/22 01:44:41;;;;;;;;;;;9.40;99.90;;;;;;5121140;27;20646;-83
2023/03/22 01:47:07;;;;;;;;;;;9.40;99.90;;;;;;5090338;28;19983;-83
2023/03/22 01:49:33;;;;;;;;;;;9.30;99.90;;;;;;5080743;28;19935;-82
2023/03/22 01:52:00;;;;;;;;;;;9.30;99.90;;;;;;5076782;28;19924;-82
2023/03/22 01:54:33;;;;;;;;;;;9.40;99.90;;;;;;5080762;28;19935;-82
2023/03/22 01:56:59;;;;;;;;;;;9.30;99.90;;;;;;5107490;28;19975;-82
2023/03/22 01:59:25;;;;;;;;;;;9.40;99.90;;;;;;5084084;28;19928;-83
2023/03/22 02:01:51;;;;;;;;;;;9.40;99.90;;;;;;5092789;28;20027;-82
2023/03/22 02:04:32;;;;;;;;;;;9.40;99.90;;;;;;5089259;28;19975;-82
2023/03/22 02:07:00;;;;;;;;;;;9.40;99.90;;;;;;5075337;28;20033;-82
2023/03/22 02:09:28;;;;;;;;;;;9.40;99.90;;;;;;5079733;28;19925;-82
2023/03/22 02:12:12;;;;;;;;;;;9.40;99.90;;;;;;5087277;28;19958;-82
2023/03/22 02:14:56;;;;;;;;;;;9.40;99.90;;;;;;5080473;28;19924;-82
2023/03/22 02:17:22;;;;;;;;;;;9.40;99.90;;;;;;5117869;28;19924;-82
2023/03/22 02:19:51;;;;;;;;;;;9.40;99.90;;;;;;5073062;28;19970;-82
2023/03/22 02:22:37;;;;;;;;;;;9.40;99.90;;;;;;5082223;28;19924;-82
2023/03/22 02:25:35;;;;;;;;;;;9.40;99.90;;;;;;5095248;28;19987;-82
2023/03/22 02:28:10;;;;;;;;;;;9.40;99.90;;;;;;5033127;28;19928;-83
2023/03/22 02:30:39;;;;;;;;;;;9.40;99.90;;;;;;5093717;28;20417;-82
2023/03/22 02:33:13;;;;;;;;;;;9.40;99.90;;;;;;5103709;28;20049;-83
2023/03/22 02:35:39;;;;;;;;;;;9.40;99.90;;;;;;5100173;28;19935;-82
2023/03/22 02:38:16;;;;;;;;;;;9.50;99.90;;;;;;5083886;28;19924;-82
2023/03/22 02:40:51;;;;;;;;;;;9.50;99.90;;;;;;5064124;28;19939;-82
2023/03/22 02:43:20;;;;;;;;;;;9.50;99.90;;;;;;5117284;28;21055;-83
2023/03/22 02:45:49;;;;;;;;;;;9.40;99.90;;;;;;5069927;28;19974;-82
2023/03/22 02:48:20;;;;;;;;;;;9.40;99.90;;;;;;5084396;28;19986;-83
2023/03/22 02:50:59;;;;;;;;;;;9.50;99.90;;;;;;5075387;28;20302;-83
2023/03/22 02:53:35;;;;;;;;;;;9.50;99.90;;;;;;5083115;28;19974;-82
2023/03/22 02:56:04;;;;;;;;;;;9.40;99.90;;;;;;5099460;28;19987;-82
2023/03/22 02:58:34;;;;;;;;;;;9.40;99.90;;;;;;5120373;27;19928;-82
2023/03/22 03:01:01;;;;;;;;;;;9.40;99.90;;;;;;5092661;28;19924;-82
2023/03/22 03:03:29;;;;;;;;;;;9.40;99.90;;;;;;5095323;28;19924;-83
2023/03/22 03:05:57;;;;;;;;;;;9.40;99.90;;;;;;5097209;28;19924;-83
2023/03/22 03:08:24;;;;;;;;;;;9.40;99.90;;;;;;5089074;28;20390;-83
2023/03/22 03:10:50;;;;;;;;;;;9.40;99.90;;;;;;5107980;28;20465;-83
2023/03/22 03:13:16;;;;;;;;;;;9.40;99.90;;;;;;5077434;28;20378;-82
2023/03/22 03:15:43;;;;;;;;;;;9.40;99.90;;;;;;5070414;28;19974;-82
2023/03/22 03:18:10;;;;;;;;;;;9.40;99.90;;;;;;5074713;28;19931;-82
2023/03/22 03:20:41;;;;;;;;;;;9.50;99.90;;;;;;5107102;28;20365;-83
2023/03/22 03:23:23;;;;;;;;;;;9.40;99.90;;;;;;5120530;27;20424;-82
2023/03/22 03:25:48;;;;;;;;;;;9.50;99.90;;;;;;5069653;28;19925;-83
2023/03/22 03:28:14;;;;;;;;;;;9.50;99.90;;;;;;5098566;28;19970;-82
2023/03/22 03:30:44;;;;;;;;;;;9.50;99.90;;;;;;5094925;28;19963;-82
2023/03/22 03:33:15;;;;;;;;;;;9.40;99.90;;;;;;5080333;28;19932;-83
2023/03/22 03:35:47;;;;;;;;;;;9.40;99.90;;;;;;5075458;28;20481;-82
2023/03/22 03:38:19;;;;;;;;;;;9.40;99.90;;;;;;5089050;28;19969;-83
2023/03/22 03:40:47;;;;;;;;;;;9.40;99.90;;;;;;5082541;28;19932;-82
2023/03/22 03:43:13;;;;;;;;;;;9.40;99.90;;;;;;5097755;28;19924;-82
2023/03/22 03:45:39;;;;;;;;;;;9.40;99.90;;;;;;5065095;28;19924;-83
2023/03/22 03:48:07;;;;;;;;;;;9.40;99.90;;;;;;5091756;28;19969;-82
2023/03/22 03:50:33;;;;;;;;;;;9.40;99.90;;;;;;5079445;28;20376;-82
2023/03/22 03:52:59;;;;;;;;;;;9.40;99.90;;;;;;5096922;28;20644;-82
2023/03/22 03:55:26;;;;;;;;;;;9.40;99.90;;;;;;5084898;28;19987;-82
2023/03/22 03:57:51;;;;;;;;;;;9.50;99.90;;;;;;5081013;28;19935;-82
2023/03/22 04:00:17;;;;;;;;;;;9.50;99.90;;;;;;5078547;28;19924;-82
2023/03/22 04:02:43;;;;;;;;;;;9.50;99.90;;;;;;5098598;28;19928;-82
2023/03/22 04:05:09;;;;;;;;;;;9.50;99.90;;;;;;5068605;28;20159;-82
2023/03/22 04:07:35;;;;;;;;;;;9.50;99.90;;;;;;5081859;28;19982;-82
2023/03/22 04:10:02;;;;;;;;;;;9.50;99.90;;;;;;5079081;28;19932;-83
2023/03/22 04:12:27;;;;;;;;;;;9.60;99.90;;;;;;5098495;28;19924;-83
2023/03/22 04:14:54;;;;;;;;;;;9.60;99.90;;;;;;5126173;27;19934;-82
2023/03/22 04:17:20;;;;;;;;;;;9.60;99.90;;;;;;5081201;28;19963;-83
2023/03/22 04:19:46;;;;;;;;;;;9.60;99.90;;;;;;5084220;28;19932;-82
2023/03/22 04:22:13;;;;;;;;;;;9.60;99.90;;;;;;5094242;28;19928;-83
2023/03/22 04:24:40;;;;;;;;;;;9.60;99.90;;;;;;5090146;28;19936;-82
2023/03/22 04:27:07;;;;;;;;;;;9.70;99.90;;;;;;5091596;28;19931;-82
2023/03/22 04:29:35;;;;;;;;;;;9.70;99.90;;;;;;5076671;28;20295;-83
2023/03/22 04:32:04;;;;;;;;;;;9.70;99.90;;;;;;5106296;28;19924;-83
2023/03/22 04:34:30;;;;;;;;;;;9.70;99.90;;;;;;5085534;28;19931;-82
2023/03/22 04:36:56;;;;;;;;;;;9.70;99.90;;;;;;5086551;28;19924;-83
2023/03/22 04:39:21;;;;;;;;;;;9.70;99.90;;;;;;5075600;28;19979;-83
2023/03/22 04:41:47;;;;;;;;;;;9.70;99.90;;;;;;5099076;28;19950;-82
2023/03/22 04:44:12;;;;;;;;;;;9.70;99.90;;;;;;5081737;28;19924;-82
2023/03/22 04:46:38;;;;;;;;;;;9.70;99.90;;;;;;5093887;28;19925;-82
2023/03/22 04:49:04;;;;;;;;;;;9.70;99.90;;;;;;5100840;28;19932;-82
2023/03/22 04:51:30;;;;;;;;;;;9.70;99.90;;;;;;5070820;28;19946;-83
2023/03/22 04:53:56;;;;;;;;;;;9.70;99.90;;;;;;5081631;28;19987;-83
2023/03/22 04:56:22;;;;;;;;;;;9.70;99.90;;;;;;5086015;28;19951;-82
2023/03/22 04:58:48;;;;;;;;;;;9.70;99.90;;;;;;5070017;28;21519;-82
2023/03/22 05:01:15;;;;;;;;;;;9.70;99.90;;;;;;5095833;28;20023;-82
2023/03/22 05:03:41;;;;;;;;;;;9.70;99.90;;;;;;5083326;28;19928;-82
2023/03/22 05:06:08;;;;;;;;;;;9.70;99.90;;;;;;5066413;28;19939;-82
2023/03/22 05:08:33;;;;;;;;;;;9.70;99.90;;;;;;5082775;28;19924;-82
2023/03/22 05:11:04;;;;;;;;;;;9.70;99.90;;;;;;5066250;28;19930;-83
2023/03/22 05:13:30;;;;;;;;;;;9.70;99.90;;;;;;5093335;28;19998;-82
2023/03/22 05:15:55;;;;;;;;;;;9.70;99.90;;;;;;5097506;28;19931;-82
2023/03/22 05:18:25;;;;;;;;;;;9.70;99.90;;;;;;5077321;28;19967;-83
2023/03/22 05:20:52;;;;;;;;;;;9.70;99.90;;;;;;5081436;28;19924;-83
2023/03/22 05:23:19;;;;;;;;;;;9.70;99.90;;;;;;5096618;28;19928;-83
2023/03/22 05:25:46;;;;;;;;;;;9.70;99.90;;;;;;5093177;28;19955;-83
2023/03/22 05:28:13;;;;;;;;;;;9.70;99.90;;;;;;5088128;28;19938;-83
2023/03/22 05:30:39;;;;;;;;;;;9.70;99.90;;;;;;5095210;28;19925;-82
2023/03/22 05:33:04;;;;;;;;;;;9.70;99.90;;;;;;5099033;28;20321;-82
2023/03/22 05:35:30;;;;;;;;;;;9.70;99.90;;;;;;5064355;28;20027;-82
2023/03/22 05:37:56;;;;;;;;;;;9.70;99.90;;;;;;5080475;28;19979;-83
2023/03/22 05:40:22;;;;;;;;;;;9.70;99.90;;;;;;5080545;28;19928;-83
2023/03/22 05:42:47;;;;;;;;;;;9.70;99.90;;;;;;5081959;28;19939;-83
2023/03/22 05:45:13;;;;;;;;;;;9.70;99.90;;;;;;5057612;28;19924;-83
2023/03/22 05:47:38;;;;;;;;;;;9.80;99.90;;;;;;5081924;28;19931;-83
2023/03/22 05:50:05;;;;;;;;;;;9.70;99.90;;;;;;5097939;28;19931;-83
2023/03/22 05:52:31;;;;;;;;;;;9.70;99.90;;;;;;5079752;28;20106;-83
2023/03/22 05:54:57;;;;;;;;;;;9.80;99.90;;;;;;5083400;28;20389;-83
2023/03/22 05:57:22;;;;;;;;;;;9.80;99.90;;;;;;5083622;28;19930;-83
2023/03/22 05:59:48;;;;;;;;;;;9.70;99.90;;;;;;5081348;28;19924;-83
2023/03/22 06:02:13;;;;;;;;;;;9.70;99.90;;;;;;5061710;28;19970;-83
2023/03/22 06:04:40;;;;;;;;;;;9.80;99.90;;;;;;5071607;28;19931;-83
2023/03/22 06:07:06;;;;;;;;;;;9.80;99.90;;;;;;5090754;28;19945;-83
2023/03/22 06:09:32;;;;;;;;;;;9.80;99.90;;;;;;5071037;28;19971;-83
2023/03/22 06:11:57;;;;;;;;;;;9.80;99.90;;;;;;5111923;28;20432;-83
2023/03/22 06:14:23;;;;;;;;;;;9.80;99.90;;;;;;5082170;28;19931;-83
2023/03/22 06:16:49;;;;;;;;;;;9.80;99.90;;;;;;5095917;28;19924;-83
2023/03/22 06:19:15;;;;;;;;;;;9.80;99.90;;;;;;5086776;28;20371;-83
2023/03/22 06:21:41;;;;;;;;;;;9.90;99.90;;;;;;5112700;28;19968;-83
2023/03/22 06:24:06;;;;;;;;;;;9.80;99.90;;;;;;5069440;28;19971;-82
2023/03/22 06:26:32;;;;;;;;;;;9.80;99.90;;;;;;5080270;28;19969;-83
2023/03/22 06:28:58;;;;;;;;;;;9.80;99.90;;;;;;5075333;28;19924;-83
2023/03/22 06:31:23;;;;;;;;;;;9.80;99.90;;;;;;5077718;28;19932;-82
2023/03/22 06:33:49;;;;;;;;;;;9.80;99.90;;;;;;5068758;28;20019;-83
2023/03/22 06:36:14;;;;;;;;;;;9.90;99.90;;;;;;5102564;28;19924;-83
2023/03/22 06:38:40;;;;;;;;;;;9.90;99.90;;;;;;5118755;28;19924;-83
2023/03/22 06:41:06;;;;;;;;;;;10.00;99.90;;;;;;5101219;28;20310;-84
2023/03/22 06:43:31;;;;;;;;;;;10.10;99.90;;;;;;5083564;28;19959;-82
2023/03/22 06:45:57;;;;;;;;;;;10.20;99.90;;;;;;5067004;28;19946;-83
2023/03/22 06:48:23;;;;;;;;;;;10.30;99.90;;;;;;5072054;28;19928;-82
2023/03/22 06:50:48;;;;;;;;;;;10.40;99.90;;;;;;5124241;28;20337;-83
2023/03/22 06:53:14;;;;;;;;;;;10.50;99.90;;;;;;5063545;28;19939;-83
2023/03/22 06:55:39;;;;;;;;;;;10.50;99.90;;;;;;5083462;28;19934;-83
2023/03/22 06:58:05;;;;;;;;;;;10.60;99.90;;;;;;5081788;28;19924;-82
2023/03/22 07:00:33;;;;;;;;;;;10.60;99.90;;;;;;5131201;28;19924;-82
2023/03/22 07:02:59;;;;;;;;;;;10.70;99.90;;;;;;5096716;28;19931;-83
2023/03/22 07:05:24;;;;;;;;;;;10.70;99.90;;;;;;5071876;28;20477;-82
2023/03/22 07:07:50;;;;;;;;;;;10.80;99.90;;;;;;5073170;28;19924;-83
2023/03/22 07:10:15;;;;;;;;;;;10.80;99.90;;;;;;5077035;28;19924;-82
2023/03/22 07:12:41;;;;;;;;;;;10.80;99.90;;;;;;5067353;28;19999;-82
2023/03/22 07:15:07;;;;;;;;;;;10.80;99.90;;;;;;5082111;28;19924;-81
2023/03/22 07:17:32;;;;;;;;;;;10.70;99.90;;;;;;5089286;28;19924;-82
2023/03/22 07:19:58;;;;;;;;;;;10.80;99.90;;;;;;5086385;28;19932;-82
2023/03/22 07:22:24;;;;;;;;;;;10.80;99.90;;;;;;5072513;28;19935;-82
2023/03/22 07:24:52;;;;;;;;;;;10.80;99.90;;;;;;5066450;28;19924;-83
2023/03/22 07:27:18;;;;;;;;;;;10.80;99.90;;;;;;5082530;28;19946;-82
2023/03/22 07:29:44;;;;;;;;;;;10.80;99.90;;;;;;5076843;28;20383;-82
2023/03/22 07:32:10;;;;;;;;;;;10.80;99.90;;;;;;5095114;28;19928;-82
2023/03/22 07:34:35;;;;;;;;;;;10.80;99.90;;;;;;5090938;28;19928;-82
2023/03/22 07:37:02;;;;;;;;;;;10.80;99.90;;;;;;5075582;28;19932;-82
2023/03/22 07:39:28;;;;;;;;;;;10.90;99.90;;;;;;5087598;28;19940;-82
2023/03/22 07:41:54;;;;;;;;;;;10.90;99.90;;;;;;5067160;28;19943;-82
2023/03/22 07:44:20;;;;;;;;;;;10.90;99.90;;;;;;5087667;28;20034;-82
2023/03/22 07:46:46;;;;;;;;;;;10.90;99.90;;;;;;5098137;28;20010;-82
2023/03/22 07:49:11;;;;;;;;;;;11.00;99.90;;;;;;5097330;27;20360;-82
2023/03/22 07:51:37;;;;;;;;;;;11.00;99.90;;;;;;5081208;28;20271;-82
2023/03/22 07:54:03;;;;;;;;;;;10.90;99.90;;;;;;5082105;28;19929;-82
2023/03/22 07:56:28;;;;;;;;;;;10.90;99.90;;;;;;5064775;28;19924;-82
2023/03/22 07:58:54;;;;;;;;;;;10.80;99.90;;;;;;5089039;28;19986;-82
2023/03/22 08:01:20;;;;;;;;;;;10.80;99.90;;;;;;5109510;28;19928;-82
2023/03/22 08:03:45;;;;;;;;;;;10.90;99.90;;;;;;5079557;28;19924;-82
2023/03/22 08:06:11;;;;;;;;;;;10.90;99.90;;;;;;5070348;28;19932;-82
2023/03/22 08:08:37;;;;;;;;;;;10.90;99.90;;;;;;5065948;28;19931;-82
2023/03/22 08:11:03;;;;;;;;;;;10.90;99.90;;;;;;5068897;28;19988;-82
2023/03/22 08:13:29;;;;;;;;;;;10.90;99.90;;;;;;5080836;28;19946;-82
2023/03/22 08:15:54;;;;;;;;;;;11.00;99.90;;;;;;5099829;28;19924;-82
2023/03/22 08:18:20;;;;;;;;;;;11.00;99.90;;;;;;5075706;28;19924;-82
2023/03/22 08:20:51;;;;;;;;;;;11.10;99.90;;;;;;5070441;28;19975;-82
2023/03/22 08:23:16;;;;;;;;;;;11.10;99.90;;;;;;5107668;28;19928;-82
2023/03/22 08:25:42;;;;;;;;;;;11.00;99.90;;;;;;5069879;28;19939;-82
2023/03/22 08:28:08;;;;;;;;;;;11.00;99.90;;;;;;5106026;28;19928;-82
2023/03/22 08:30:34;;;;;;;;;;;11.00;99.90;;;;;;5082108;28;19972;-82
2023/03/22 08:33:00;;;;;;;;;;;11.00;99.90;;;;;;5091746;28;19925;-83
2023/03/22 08:35:25;;;;;;;;;;;11.00;99.90;;;;;;5072949;28;20137;-81
2023/03/22 08:37:55;;;;;;;;;;;11.10;99.90;;;;;;5061515;28;19928;-81
2023/03/22 08:40:21;;;;;;;;;;;11.10;99.90;;;;;;5063477;28;19924;-81
2023/03/22 08:42:47;;;;;;;;;;;11.10;99.90;;;;;;5073824;28;19929;-82
2023/03/22 08:45:13;;;;;;;;;;;11.10;99.90;;;;;;5094349;28;20493;-80
2023/03/22 08:47:40;;;;;;;;;;;11.20;99.90;;;;;;5074205;28;19924;-81
2023/03/22 08:50:06;;;;;;;;;;;11.20;99.90;;;;;;5119877;28;19928;-81
2023/03/22 08:52:32;;;;;;;;;;;11.40;99.90;;;;;;5102420;28;19951;-82
2023/03/22 08:54:57;;;;;;;;;;;11.50;99.90;;;;;;5072646;28;19931;-81
2023/03/22 08:57:23;;;;;;;;;;;11.70;99.90;;;;;;5120219;27;19931;-80
2023/03/22 08:59:51;;;;;;;;;;;11.90;99.90;;;;;;5068625;27;19931;-82
2023/03/22 09:02:16;;;;;;;;;;;12.00;99.90;;;;;;5086652;28;19946;-81
2023/03/22 09:04:42;;;;;;;;;;;12.20;99.90;;;;;;5090973;27;19929;-81
2023/03/22 09:07:07;;;;;;;;;;;12.20;99.90;;;;;;5083520;28;19923;-81
2023/03/22 09:09:33;;;;;;;;;;;12.30;99.90;;;;;;5053771;28;19934;-81
2023/03/22 09:11:58;;;;;;;;;;;12.30;99.90;;;;;;5072152;28;19934;-82
2023/03/22 09:14:24;;;;;;;;;;;12.30;99.90;;;;;;5068166;28;20380;-81
2023/03/22 09:16:50;;;;;;;;;;;12.30;99.90;;;;;;5078815;28;19969;-81
2023/03/22 09:19:16;;;;;;;;;;;12.20;99.90;;;;;;5119988;28;20390;-81
2023/03/22 09:21:41;;;;;;;;;;;12.10;99.90;;;;;;5101302;28;19927;-81
2023/03/22 09:24:07;;;;;;;;;;;12.10;99.90;;;;;;5084542;28;19923;-81
2023/03/22 09:26:33;;;;;;;;;;;12.00;99.90;;;;;;5106139;27;19923;-81
2023/03/22 09:28:58;;;;;;;;;;;12.10;99.90;;;;;;5088392;27;19923;-81
2023/03/22 09:31:24;;;;;;;;;;;12.10;99.90;;;;;;5091336;28;19934;-81
2023/03/22 09:33:50;;;;;;;;;;;12.20;99.90;;;;;;5100587;28;19927;-81
2023/03/22 09:36:16;;;;;;;;;;;12.20;99.90;;;;;;5099453;28;19935;-81
2023/03/22 09:38:42;;;;;;;;;;;12.20;99.90;;;;;;5107884;28;19932;-81
2023/03/22 09:41:10;;;;;;;;;;;12.20;99.90;;;;;;5082576;28;20291;-81
2023/03/22 09:43:41;;;;;;;;;;;12.10;99.90;;;;;;5098475;28;19987;-81
2023/03/22 09:46:11;;;;;;;;;;;12.10;99.90;;;;;;5083286;28;19924;-81
2023/03/22 09:48:37;;;;;;;;;;;11.90;99.90;;;;;;5074142;28;20124;-81
2023/03/22 09:51:04;;;;;;;;;;;11.90;99.90;;;;;;5120933;27;19990;-81
2023/03/22 09:53:31;;;;;;;;;;;11.80;99.90;;;;;;5100996;28;19931;-81
2023/03/22 09:55:56;;;;;;;;;;;11.70;99.90;;;;;;5083878;28;19983;-81
2023/03/22 09:58:44;;;;;;;;;;;11.70;99.90;;;;;;5100005;28;19967;-81
2023/03/22 10:01:28;;;;;;;;;;;11.60;99.90;;;;;;5093138;28;19980;-81
2023/03/22 10:04:13;;;;;;;;;;;11.50;99.90;;;;;;5108982;28;19935;-80
2023/03/22 10:06:41;;;;;;;;;;;11.50;99.90;;;;;;5113249;28;19928;-81
2023/03/22 10:09:28;;;;;;;;;;;11.50;99.90;;;;;;5083990;28;19978;-81
2023/03/22 10:12:09;;;;;;;;;;;11.50;99.90;;;;;;5085005;28;19924;-82
2023/03/22 10:14:40;;;;;;;;;;;11.50;99.90;;;;;;5100908;28;19924;-81
2023/03/22 10:17:10;;;;;;;;;;;11.50;99.90;;;;;;5083203;28;19934;-81
2023/03/22 10:19:57;;;;;;;;;;;11.40;99.90;;;;;;5134759;28;20014;-81
2023/03/22 10:22:26;;;;;;;;;;;11.40;99.90;;;;;;5112818;28;19937;-81
2023/03/22 10:24:52;;;;;;;;;;;11.40;99.90;;;;;;5077755;28;20003;-81
2023/03/22 10:27:19;;;;;;;;;;;11.40;99.90;;;;;;5096647;28;20373;-81
2023/03/22 10:29:47;;;;;;;;;;;11.40;99.90;;;;;;5133667;28;19991;-81
2023/03/22 10:32:17;;;;;;;;;;;11.40;99.90;;;;;;5081373;28;19945;-81
2023/03/22 10:34:43;;;;;;;;;;;11.40;99.90;;;;;;5083711;28;19931;-81
2023/03/22 10:37:13;;;;;;;;;;;11.40;99.90;;;;;;5080072;28;19931;-81
2023/03/22 10:39:40;;;;;;;;;;;11.40;99.90;;;;;;5099559;28;19963;-82
2023/03/22 10:42:11;;;;;;;;;;;11.40;99.90;;;;;;5086543;27;19924;-81
2023/03/22 10:44:52;;;;;;;;;;;11.40;99.90;;;;;;5084303;28;19956;-81
2023/03/22 10:47:24;;;;;;;;;;;11.40;99.90;;;;;;5126495;27;19924;-81
2023/03/22 10:49:53;;;;;;;;;;;11.40;99.90;;;;;;5088029;28;19924;-80
2023/03/22 10:52:41;;;;;;;;;;;11.40;99.90;;;;;;5115113;28;19924;-81
2023/03/22 10:55:14;;;;;;;;;;;11.40;99.90;;;;;;5089940;28;20457;-81
2023/03/22 10:57:41;;;;;;;;;;;11.40;99.90;;;;;;5098358;28;19924;-81
2023/03/22 11:00:10;;;;;;;;;;;11.30;99.90;;;;;;5089741;27;20382;-80
2023/03/22 11:02:42;;;;;;;;;;;11.30;99.90;;;;;;5088081;28;19928;-82
2023/03/22 11:05:17;;;;;;;;;;;11.20;99.90;;;;;;5102111;28;19924;-83
2023/03/22 11:07:43;;;;;;;;;;;11.20;99.90;;;;;;5101815;28;19960;-83
2023/03/22 11:10:09;;;;;;;;;;;11.20;99.90;;;;;;5102893;28;19935;-83
2023/03/22 11:12:39;;;;;;;;;;;11.10;99.90;;;;;;5073342;28;19924;-83
2023/03/22 11:15:06;;;;;;;;;;;11.10;99.90;;;;;;5098207;28;20015;-82
2023/03/22 11:17:32;;;;;;;;;;;11.10;99.90;;;;;;5085525;28;19923;-82
2023/03/22 11:19:59;;;;;;;;;;;11.10;99.90;;;;;;5085468;28;19923;-83
2023/03/22 11:22:28;;;;;;;;;;;11.00;99.90;;;;;;5072846;28;19924;-83
2023/03/22 11:24:54;;;;;;;;;;;11.00;99.90;;;;;;5077467;28;19930;-83
2023/03/22 11:27:31;;;;;;;;;;;10.90;99.90;;;;;;5086659;28;19970;-83
2023/03/22 11:29:59;;;;;;;;;;;10.90;99.90;;;;;;5108576;27;19923;-83
2023/03/22 11:32:26;;;;;;;;;;;10.90;99.90;;;;;;5072846;28;20436;-83
2023/03/22 11:34:59;;;;;;;;;;;10.90;99.90;;;;;;5133355;27;19930;-82
2023/03/22 11:37:25;;;;;;;;;;;10.90;99.90;;;;;;5115051;27;19942;-83
2023/03/22 11:39:53;;;;;;;;;;;10.90;99.90;;;;;;5096134;28;20201;-83
2023/03/22 11:42:20;;;;;;;;;;;10.90;99.90;;;;;;5081821;28;20061;-83
2023/03/22 11:44:45;;;;;;;;;;;11.00;99.90;;;;;;5089622;28;19923;-83
2023/03/22 11:47:12;;;;;;;;;;;11.00;99.90;;;;;;5128210;27;19928;-84
2023/03/22 11:49:38;;;;;;;;;;;11.00;99.90;;;;;;5073110;28;20204;-83
2023/03/22 11:52:17;;;;;;;;;;;11.00;99.90;;;;;;5096240;28;19941;-83
2023/03/22 11:54:44;;;;;;;;;;;11.00;99.90;;;;;;5102161;28;19924;-83
2023/03/22 11:57:19;;;;;;;;;;;11.10;99.90;;;;;;5083520;28;19928;-83
2023/03/22 11:59:47;;;;;;;;;;;11.10;99.90;;;;;;5089416;28;20027;-83
2023/03/22 12:02:22;;;;;;;;;;;11.10;99.90;;;;;;5076058;28;19934;-83
2023/03/22 12:04:50;;;;;;;;;;;11.10;99.90;;;;;;5077102;28;19973;-82
2023/03/22 12:07:18;;;;;;;;;;;11.10;99.90;;;;;;5072047;28;19952;-83
2023/03/22 12:09:48;;;;;;;;;;;11.10;99.90;;;;;;5100125;28;19923;-83
2023/03/22 12:12:16;;;;;;;;;;;11.00;99.90;;;;;;5089584;28;20374;-83
2023/03/22 12:14:42;;;;;;;;;;;11.10;99.90;;;;;;5094625;28;19932;-82
2023/03/22 12:17:23;;;;;;;;;;;11.00;99.90;;;;;;5082873;28;19927;-83
2023/03/22 12:20:01;;;;;;;;;;;11.00;99.90;;;;;;5075531;28;19934;-82
2023/03/22 12:22:30;;;;;;;;;;;11.00;99.90;;;;;;5101583;28;19924;-82
2023/03/22 12:24:57;;;;;;;;;;;11.00;99.90;;;;;;5077313;28;19931;-83
2023/03/22 12:27:43;;;;;;;;;;;11.00;99.90;;;;;;5081416;28;19928;-83
2023/03/22 12:30:15;;;;;;;;;;;11.00;99.90;;;;;;5099695;28;19928;-82
2023/03/22 12:32:44;;;;;;;;;;;11.00;99.90;;;;;;5082195;28;19923;-82
2023/03/22 12:35:13;;;;;;;;;;;10.90;99.90;;;;;;5084728;28;19924;-82
2023/03/22 12:37:41;;;;;;;;;;;11.00;99.90;;;;;;5102045;28;19932;-82
2023/03/22 12:40:07;;;;;;;;;;;11.00;99.90;;;;;;5102361;27;19963;-82
2023/03/22 12:42:35;;;;;;;;;;;10.90;99.90;;;;;;5084440;27;19935;-82
2023/03/22 12:45:03;;;;;;;;;;;10.90;99.90;;;;;;5092627;28;19923;-82
2023/03/22 12:47:31;;;;;;;;;;;11.00;99.90;;;;;;5098196;28;19927;-82
2023/03/22 12:50:02;;;;;;;;;;;11.00;99.90;;;;;;5090903;28;19924;-83
2023/03/22 12:52:46;;;;;;;;;;;11.00;99.90;;;;;;5083988;28;19928;-82
2023/03/22 12:55:32;;;;;;;;;;;10.90;99.90;;;;;;5081788;28;19954;-82
2023/03/22 12:57:58;;;;;;;;;;;10.90;99.90;;;;;;5099884;28;19924;-82
2023/03/22 13:00:27;;;;;;;;;;;10.90;99.90;;;;;;5099079;28;19924;-83
2023/03/22 13:03:16;;;;;;;;;;;10.90;99.90;;;;;;5134561;27;19923;-83
2023/03/22 13:05:43;;;;;;;;;;;10.80;99.90;;;;;;5079351;28;19934;-83
2023/03/22 13:08:09;;;;;;;;;;;10.80;99.90;;;;;;5101254;28;19923;-82
2023/03/22 13:10:39;;;;;;;;;;;10.80;99.90;;;;;;5083747;28;19978;-83
2023/03/22 13:13:31;;;;;;;;;;;10.70;99.90;;;;;;5084510;28;19978;-84
2023/03/22 13:16:12;;;;;;;;;;;10.70;99.90;;;;;;5098685;28;19924;-84
2023/03/22 13:18:41;;;;;;;;;;;10.70;99.90;;;;;;5084907;28;19959;-85
2023/03/22 13:21:12;;;;;;;;;;;10.70;99.90;;;;;;5093661;28;19930;-85
2023/03/22 13:23:53;;;;;;;;;;;10.70;99.90;;;;;;5101474;28;20382;-85
2023/03/22 13:26:20;;;;;;;;;;;10.70;99.90;;;;;;5100195;28;19932;-84
2023/03/22 13:28:56;;;;;;;;;;;10.70;99.90;;;;;;5101534;28;19931;-85
2023/03/22 13:31:32;;;;;;;;;;;10.70;99.90;;;;;;5099884;28;19927;-86
2023/03/22 13:34:00;;;;;;;;;;;10.70;99.90;;;;;;5083950;28;20513;-86
2023/03/22 13:36:28;;;;;;;;;;;10.70;99.90;;;;;;5080935;28;19924;-85
2023/03/22 13:38:55;;;;;;;;;;;10.70;99.90;;;;;;5084676;28;19927;-86
2023/03/22 13:41:25;;;;;;;;;;;10.70;99.90;;;;;;5099446;28;20306;-85
2023/03/22 13:43:53;;;;;;;;;;;10.70;99.90;;;;;;5094508;28;19932;-85
2023/03/22 13:46:18;;;;;;;;;;;10.70;99.90;;;;;;5115227;27;19928;-85
2023/03/22 13:48:47;;;;;;;;;;;10.70;99.90;;;;;;5088982;28;19959;-84
2023/03/22 13:51:15;;;;;;;;;;;10.60;99.90;;;;;;5080114;28;20257;-84
2023/03/22 13:53:46;;;;;;;;;;;10.70;99.90;;;;;;5084061;28;20026;-86
2023/03/22 13:56:13;;;;;;;;;;;10.60;99.90;;;;;;5086677;28;20002;-84
2023/03/22 13:58:40;;;;;;;;;;;10.70;99.90;;;;;;5121229;28;19954;-84
2023/03/22 14:01:11;;;;;;;;;;;10.60;99.90;;;;;;5078751;28;19957;-85
2023/03/22 14:03:40;;;;;;;;;;;10.60;99.90;;;;;;5098351;28;20010;-84
2023/03/22 14:06:20;;;;;;;;;;;10.60;99.90;;;;;;5084213;28;19991;-84
2023/03/22 14:08:48;;;;;;;;;;;10.60;99.90;;;;;;5076769;28;19928;-83
2023/03/22 14:11:33;;;;;;;;;;;10.60;99.90;;;;;;5090761;28;19934;-84
2023/03/22 14:14:02;;;;;;;;;;;10.70;99.90;;;;;;5100172;28;19963;-84
2023/03/22 14:16:34;;;;;;;;;;;10.70;99.90;;;;;;5102242;27;19962;-83
2023/03/22 14:19:01;;;;;;;;;;;10.70;99.90;;;;;;5116561;28;19924;-83
2023/03/22 14:21:31;;;;;;;;;;;10.70;99.90;;;;;;5087228;28;19924;-84
2023/03/22 14:23:58;;;;;;;;;;;10.70;99.90;;;;;;5105273;28;20413;-83
2023/03/22 14:26:26;;;;;;;;;;;10.80;99.90;;;;;;5104759;28;19966;-83
2023/03/22 14:28:55;;;;;;;;;;;10.80;99.90;;;;;;5101016;28;19986;-83
2023/03/22 14:31:22;;;;;;;;;;;10.80;99.90;;;;;;5099929;27;19969;-83